sensor_id;sensor_type;location;lat;lon;timestamp;pressure;altitude;pressure_sealevel;temperature;humidity
7200;BME280;3641;49.082;8.200;2023-07-20T00:01:11;100168.72;;;20.44;47.40
7200;BME280;3641;49.082;8.200;2023-07-20T00:03:38;100167.47;;;20.96;44.78
7200;BME280;3641;49.082;8.200;2023-07-20T00:06:05;100172.25;;;20.05;48.25
7200;BME280;3641;49.082;8.200;2023-07-20T00:08:31;100167.09;;;20.48;45.91
7200;BME280;3641;49.082;8.200;2023-07-20T00:10:58;100174.88;;;20.51;47.52
7200;BME280;3641;49.082;8.200;2023-07-20T00:13:24;100176.97;;;20.22;48.10
7200;BME280;3641;49.082;8.200;2023-07-20T00:15:52;100175.97;;;20.67;45.26
7200;BME280;3641;49.082;8.200;2023-07-20T00:18:18;100179.47;;;20.62;46.02
7200;BME280;3641;49.082;8.200;2023-07-20T00:20:46;100184.69;;;20.76;44.70
7200;BME280;3641;49.082;8.200;2023-07-20T00:23:12;100182.25;;;20.23;50.08
7200;BME280;3641;49.082;8.200;2023-07-20T00:25:39;100182.97;;;20.36;48.20
7200;BME280;3641;49.082;8.200;2023-07-20T00:28:05;100187.56;;;20.64;45.82
7200;BME280;3641;49.082;8.200;2023-07-20T00:30:32;100183.34;;;20.78;44.79
7200;BME280;3641;49.082;8.200;2023-07-20T00:32:59;100180.25;;;20.58;45.19
7200;BME280;3641;49.082;8.200;2023-07-20T00:35:26;100171.19;;;20.45;45.85
7200;BME280;3641;49.082;8.200;2023-07-20T00:37:52;100172.78;;;20.58;45.53
7200;BME280;3641;49.082;8.200;2023-07-20T00:40:19;100175.88;;;20.62;45.59
7200;BME280;3641;49.082;8.200;2023-07-20T00:42:45;100168.84;;;20.54;45.77
7200;BME280;3641;49.082;8.200;2023-07-20T00:45:12;100167.66;;;20.67;45.94
7200;BME280;3641;49.082;8.200;2023-07-20T00:47:38;100164.38;;;20.14;48.59
7200;BME280;3641;49.082;8.200;2023-07-20T00:50:07;100162.50;;;20.37;46.53
7200;BME280;3641;49.082;8.200;2023-07-20T00:52:34;100170.56;;;20.38;45.85
7200;BME280;3641;49.082;8.200;2023-07-20T00:55:01;100167.53;;;20.40;46.23
7200;BME280;3641;49.082;8.200;2023-07-20T00:57:27;100164.69;;;20.35;45.76
7200;BME280;3641;49.082;8.200;2023-07-20T00:59:54;100172.31;;;20.27;46.74
7200;BME280;3641;49.082;8.200;2023-07-20T01:02:20;100169.38;;;20.34;45.62
7200;BME280;3641;49.082;8.200;2023-07-20T01:04:47;100163.19;;;20.27;46.59
7200;BME280;3641;49.082;8.200;2023-07-20T01:07:23;100167.66;;;20.28;46.08
7200;BME280;3641;49.082;8.200;2023-07-20T01:09:55;100163.09;;;20.22;48.02
7200;BME280;3641;49.082;8.200;2023-07-20T01:12:28;100163.78;;;19.95;48.29
7200;BME280;3641;49.082;8.200;2023-07-20T01:14:56;100164.81;;;19.60;48.37
7200;BME280;3641;49.082;8.200;2023-07-20T01:17:23;100162.78;;;19.84;47.68
7200;BME280;3641;49.082;8.200;2023-07-20T01:19:49;100161.41;;;20.04;46.49
7200;BME280;3641;49.082;8.200;2023-07-20T01:22:28;100161.84;;;19.95;47.72
7200;BME280;3641;49.082;8.200;2023-07-20T01:28:27;100167.56;;;19.89;47.80
7200;BME280;3641;49.082;8.200;2023-07-20T01:31:14;100163.22;;;19.93;48.07
7200;BME280;3641;49.082;8.200;2023-07-20T01:33:41;100159.94;;;19.96;47.15
7200;BME280;3641;49.082;8.200;2023-07-20T01:36:09;100161.19;;;19.88;47.02
7200;BME280;3641;49.082;8.200;2023-07-20T01:38:36;100159.47;;;19.53;48.16
7200;BME280;3641;49.082;8.200;2023-07-20T01:41:03;100156.16;;;19.39;48.93
7200;BME280;3641;49.082;8.200;2023-07-20T01:43:31;100160.78;;;18.93;53.24
7200;BME280;3641;49.082;8.200;2023-07-20T01:45:57;100159.66;;;18.30;54.71
7200;BME280;3641;49.082;8.200;2023-07-20T01:48:25;100163.31;;;19.23;49.81
7200;BME280;3641;49.082;8.200;2023-07-20T01:50:54;100168.44;;;18.62;54.26
7200;BME280;3641;49.082;8.200;2023-07-20T01:53:21;100161.25;;;18.26;55.77
7200;BME280;3641;49.082;8.200;2023-07-20T01:55:47;100155.84;;;18.95;49.96
7200;BME280;3641;49.082;8.200;2023-07-20T01:58:14;100158.84;;;19.34;48.79
7200;BME280;3641;49.082;8.200;2023-07-20T02:00:40;100160.50;;;19.06;52.47
7200;BME280;3641;49.082;8.200;2023-07-20T02:03:06;100160.84;;;18.46;54.75
7200;BME280;3641;49.082;8.200;2023-07-20T02:05:34;100163.41;;;18.12;56.01
7200;BME280;3641;49.082;8.200;2023-07-20T02:08:01;100166.53;;;17.92;57.27
7200;BME280;3641;49.082;8.200;2023-07-20T02:10:27;100150.63;;;18.70;54.35
7200;BME280;3641;49.082;8.200;2023-07-20T02:12:54;100142.03;;;18.95;50.24
7200;BME280;3641;49.082;8.200;2023-07-20T02:15:21;100151.50;;;18.99;51.51
7200;BME280;3641;49.082;8.200;2023-07-20T02:17:47;100149.31;;;19.13;49.57
7200;BME280;3641;49.082;8.200;2023-07-20T02:20:14;100151.78;;;18.74;54.46
7200;BME280;3641;49.082;8.200;2023-07-20T02:22:41;100151.13;;;19.08;49.76
7200;BME280;3641;49.082;8.200;2023-07-20T02:25:08;100155.91;;;18.72;51.98
7200;BME280;3641;49.082;8.200;2023-07-20T02:27:35;100154.09;;;18.89;52.19
7200;BME280;3641;49.082;8.200;2023-07-20T02:30:02;100153.25;;;18.77;52.22
7200;BME280;3641;49.082;8.200;2023-07-20T02:32:29;100160.38;;;18.61;52.66
7200;BME280;3641;49.082;8.200;2023-07-20T02:34:56;100159.25;;;18.74;51.14
7200;BME280;3641;49.082;8.200;2023-07-20T02:37:23;100162.78;;;18.45;53.89
7200;BME280;3641;49.082;8.200;2023-07-20T02:39:51;100163.25;;;18.66;53.51
7200;BME280;3641;49.082;8.200;2023-07-20T02:42:17;100164.84;;;17.91;56.55
7200;BME280;3641;49.082;8.200;2023-07-20T02:44:44;100170.25;;;18.45;51.87
7200;BME280;3641;49.082;8.200;2023-07-20T02:47:11;100166.06;;;18.30;55.61
7200;BME280;3641;49.082;8.200;2023-07-20T02:49:37;100164.69;;;18.68;50.59
7200;BME280;3641;49.082;8.200;2023-07-20T02:52:04;100171.16;;;17.79;57.85
7200;BME280;3641;49.082;8.200;2023-07-20T02:54:31;100172.06;;;18.27;55.16
7200;BME280;3641;49.082;8.200;2023-07-20T02:56:59;100169.81;;;17.70;55.42
7200;BME280;3641;49.082;8.200;2023-07-20T02:59:26;100170.50;;;18.43;51.39
7200;BME280;3641;49.082;8.200;2023-07-20T03:01:54;100170.94;;;17.93;54.46
7200;BME280;3641;49.082;8.200;2023-07-20T03:04:21;100163.13;;;18.49;51.18
7200;BME280;3641;49.082;8.200;2023-07-20T03:06:47;100175.91;;;18.38;52.41
7200;BME280;3641;49.082;8.200;2023-07-20T03:09:14;100181.63;;;18.60;50.65
7200;BME280;3641;49.082;8.200;2023-07-20T03:11:40;100176.38;;;18.47;52.41
7200;BME280;3641;49.082;8.200;2023-07-20T03:14:08;100178.41;;;18.51;50.95
7200;BME280;3641;49.082;8.200;2023-07-20T03:16:36;100179.47;;;18.50;51.56
7200;BME280;3641;49.082;8.200;2023-07-20T03:19:02;100185.63;;;18.17;52.10
7200;BME280;3641;49.082;8.200;2023-07-20T03:21:30;100179.72;;;17.48;59.05
7200;BME280;3641;49.082;8.200;2023-07-20T03:23:56;100190.09;;;16.85;61.39
7200;BME280;3641;49.082;8.200;2023-07-20T03:26:22;100184.16;;;17.91;52.96
7200;BME280;3641;49.082;8.200;2023-07-20T03:28:49;100183.59;;;17.58;58.10
7200;BME280;3641;49.082;8.200;2023-07-20T03:31:17;100193.91;;;16.84;60.22
7200;BME280;3641;49.082;8.200;2023-07-20T03:33:43;100188.94;;;17.41;55.19
7200;BME280;3641;49.082;8.200;2023-07-20T03:36:09;100187.63;;;17.44;55.67
7200;BME280;3641;49.082;8.200;2023-07-20T03:38:36;100192.34;;;17.97;54.24
7200;BME280;3641;49.082;8.200;2023-07-20T03:41:03;100185.50;;;18.00;54.34
7200;BME280;3641;49.082;8.200;2023-07-20T03:43:29;100191.53;;;17.67;56.53
7200;BME280;3641;49.082;8.200;2023-07-20T03:45:56;100195.88;;;17.86;56.66
7200;BME280;3641;49.082;8.200;2023-07-20T03:48:24;100192.97;;;17.69;56.29
7200;BME280;3641;49.082;8.200;2023-07-20T03:50:51;100203.09;;;17.87;53.47
7200;BME280;3641;49.082;8.200;2023-07-20T03:53:18;100201.06;;;17.83;58.26
7200;BME280;3641;49.082;8.200;2023-07-20T03:55:45;100201.72;;;17.66;58.58
7200;BME280;3641;49.082;8.200;2023-07-20T03:58:13;100202.63;;;17.18;61.37
7200;BME280;3641;49.082;8.200;2023-07-20T04:00:39;100196.22;;;17.36;58.73
7200;BME280;3641;49.082;8.200;2023-07-20T04:03:06;100198.84;;;17.31;56.17
7200;BME280;3641;49.082;8.200;2023-07-20T04:05:34;100197.78;;;17.74;54.63
7200;BME280;3641;49.082;8.200;2023-07-20T04:08:01;100195.53;;;17.83;53.67
7200;BME280;3641;49.082;8.200;2023-07-20T04:10:27;100206.47;;;17.47;58.62
7200;BME280;3641;49.082;8.200;2023-07-20T04:12:54;100195.81;;;17.51;55.65
7200;BME280;3641;49.082;8.200;2023-07-20T04:15:20;100206.34;;;17.84;53.36
7200;BME280;3641;49.082;8.200;2023-07-20T04:17:47;100198.00;;;17.72;53.95
7200;BME280;3641;49.082;8.200;2023-07-20T04:20:13;100204.78;;;17.46;55.53
7200;BME280;3641;49.082;8.200;2023-07-20T04:22:41;100208.28;;;17.53;54.83
7200;BME280;3641;49.082;8.200;2023-07-20T04:25:08;100201.00;;;17.71;54.25
7200;BME280;3641;49.082;8.200;2023-07-20T04:27:35;100208.16;;;17.48;60.43
7200;BME280;3641;49.082;8.200;2023-07-20T04:30:02;100205.47;;;17.30;59.40
7200;BME280;3641;49.082;8.200;2023-07-20T04:32:29;100206.16;;;17.25;60.50
7200;BME280;3641;49.082;8.200;2023-07-20T04:34:55;100203.88;;;17.64;56.13
7200;BME280;3641;49.082;8.200;2023-07-20T04:37:22;100208.28;;;17.53;55.64
7200;BME280;3641;49.082;8.200;2023-07-20T04:39:50;100209.28;;;17.71;55.17
7200;BME280;3641;49.082;8.200;2023-07-20T04:42:16;100204.41;;;17.12;61.37
7200;BME280;3641;49.082;8.200;2023-07-20T04:44:42;100209.28;;;17.29;57.36
7200;BME280;3641;49.082;8.200;2023-07-20T04:47:09;100218.03;;;17.68;54.91
7200;BME280;3641;49.082;8.200;2023-07-20T04:49:35;100206.78;;;17.39;59.28
7200;BME280;3641;49.082;8.200;2023-07-20T04:52:02;100221.44;;;16.91;63.70
7200;BME280;3641;49.082;8.200;2023-07-20T04:54:29;100208.75;;;16.83;62.96
7200;BME280;3641;49.082;8.200;2023-07-20T04:56:56;100213.84;;;17.04;62.60
7200;BME280;3641;49.082;8.200;2023-07-20T04:59:23;100210.63;;;17.08;62.12
7200;BME280;3641;49.082;8.200;2023-07-20T05:01:49;100215.66;;;16.55;64.84
7200;BME280;3641;49.082;8.200;2023-07-20T05:04:16;100216.41;;;17.18;61.40
7200;BME280;3641;49.082;8.200;2023-07-20T05:06:42;100208.09;;;16.69;63.34
7200;BME280;3641;49.082;8.200;2023-07-20T05:09:09;100200.75;;;17.30;60.10
7200;BME280;3641;49.082;8.200;2023-07-20T05:11:35;100213.03;;;17.34;60.68
7200;BME280;3641;49.082;8.200;2023-07-20T05:14:03;100212.31;;;16.46;64.76
7200;BME280;3641;49.082;8.200;2023-07-20T05:16:29;100218.78;;;16.15;64.58
7200;BME280;3641;49.082;8.200;2023-07-20T05:18:56;100217.03;;;15.95;64.53
7200;BME280;3641;49.082;8.200;2023-07-20T05:21:23;100218.22;;;16.94;58.26
7200;BME280;3641;49.082;8.200;2023-07-20T05:23:49;100217.78;;;16.53;61.34
7200;BME280;3641;49.082;8.200;2023-07-20T05:26:16;100216.28;;;16.94;63.30
7200;BME280;3641;49.082;8.200;2023-07-20T05:28:42;100215.56;;;16.62;65.11
7200;BME280;3641;49.082;8.200;2023-07-20T05:31:10;100215.59;;;16.37;66.83
7200;BME280;3641;49.082;8.200;2023-07-20T05:33:36;100222.44;;;16.52;63.32
7200;BME280;3641;49.082;8.200;2023-07-20T05:36:03;100205.78;;;16.66;65.64
7200;BME280;3641;49.082;8.200;2023-07-20T05:38:29;100209.34;;;16.92;63.39
7200;BME280;3641;49.082;8.200;2023-07-20T05:40:59;100211.09;;;16.86;64.18
7200;BME280;3641;49.082;8.200;2023-07-20T05:43:27;100211.97;;;16.61;66.03
7200;BME280;3641;49.082;8.200;2023-07-20T05:45:53;100204.16;;;16.58;67.47
7200;BME280;3641;49.082;8.200;2023-07-20T05:48:21;100209.44;;;16.60;66.97
7200;BME280;3641;49.082;8.200;2023-07-20T05:50:47;100198.03;;;17.12;62.05
7200;BME280;3641;49.082;8.200;2023-07-20T05:53:14;100210.31;;;16.79;66.39
7200;BME280;3641;49.082;8.200;2023-07-20T05:55:40;100220.25;;;16.80;66.39
7200;BME280;3641;49.082;8.200;2023-07-20T05:58:07;100210.66;;;17.50;63.65
7200;BME280;3641;49.082;8.200;2023-07-20T06:00:33;100218.59;;;17.88;57.80
7200;BME280;3641;49.082;8.200;2023-07-20T06:03:00;100210.72;;;17.92;59.97
7200;BME280;3641;49.082;8.200;2023-07-20T06:05:29;100213.25;;;18.17;58.18
7200;BME280;3641;49.082;8.200;2023-07-20T06:07:55;100215.94;;;17.82;62.79
7200;BME280;3641;49.082;8.200;2023-07-20T06:10:22;100217.09;;;18.16;61.90
7200;BME280;3641;49.082;8.200;2023-07-20T06:12:49;100214.81;;;18.13;62.49
7200;BME280;3641;49.082;8.200;2023-07-20T06:15:25;100217.72;;;18.42;61.46
7200;BME280;3641;49.082;8.200;2023-07-20T06:17:53;100220.69;;;18.76;58.74
7200;BME280;3641;49.082;8.200;2023-07-20T06:20:21;100221.59;;;19.17;61.55
7200;BME280;3641;49.082;8.200;2023-07-20T06:22:49;100213.00;;;18.90;59.44
7200;BME280;3641;49.082;8.200;2023-07-20T06:25:16;100216.03;;;19.74;58.74
7200;BME280;3641;49.082;8.200;2023-07-20T06:27:44;100220.19;;;20.40;55.41
7200;BME280;3641;49.082;8.200;2023-07-20T06:30:11;100210.31;;;21.27;54.08
7200;BME280;3641;49.082;8.200;2023-07-20T06:32:38;100210.59;;;22.12;52.59
7200;BME280;3641;49.082;8.200;2023-07-20T06:35:05;100211.94;;;22.37;50.96
7200;BME280;3641;49.082;8.200;2023-07-20T06:37:31;100210.34;;;21.82;51.59
7200;BME280;3641;49.082;8.200;2023-07-20T06:39:59;100217.25;;;21.52;52.64
7200;BME280;3641;49.082;8.200;2023-07-20T06:42:26;100210.03;;;21.78;52.12
7200;BME280;3641;49.082;8.200;2023-07-20T06:44:52;100211.59;;;20.97;53.01
7200;BME280;3641;49.082;8.200;2023-07-20T06:47:18;100218.19;;;20.91;53.73
7200;BME280;3641;49.082;8.200;2023-07-20T06:49:45;100217.47;;;20.62;53.96
7200;BME280;3641;49.082;8.200;2023-07-20T06:52:11;100213.84;;;19.88;56.91
7200;BME280;3641;49.082;8.200;2023-07-20T06:54:37;100218.53;;;20.22;55.66
7200;BME280;3641;49.082;8.200;2023-07-20T06:57:05;100214.72;;;20.45;53.84
7200;BME280;3641;49.082;8.200;2023-07-20T06:59:32;100219.38;;;19.59;58.26
7200;BME280;3641;49.082;8.200;2023-07-20T07:01:59;100209.28;;;20.16;54.91
7200;BME280;3641;49.082;8.200;2023-07-20T07:04:25;100215.56;;;20.45;53.66
7200;BME280;3641;49.082;8.200;2023-07-20T07:06:52;100213.41;;;20.30;55.42
7200;BME280;3641;49.082;8.200;2023-07-20T07:09:18;100215.09;;;20.14;55.70
7200;BME280;3641;49.082;8.200;2023-07-20T07:11:46;100210.81;;;20.24;55.10
7200;BME280;3641;49.082;8.200;2023-07-20T07:14:13;100208.88;;;19.90;56.63
7200;BME280;3641;49.082;8.200;2023-07-20T07:16:40;100210.91;;;20.12;56.28
7200;BME280;3641;49.082;8.200;2023-07-20T07:19:07;100210.16;;;20.00;56.45
7200;BME280;3641;49.082;8.200;2023-07-20T07:21:33;100217.19;;;20.07;55.62
7200;BME280;3641;49.082;8.200;2023-07-20T07:24:00;100212.91;;;20.17;55.79
7200;BME280;3641;49.082;8.200;2023-07-20T07:26:26;100213.56;;;20.41;54.30
7200;BME280;3641;49.082;8.200;2023-07-20T07:28:53;100215.75;;;20.39;54.12
7200;BME280;3641;49.082;8.200;2023-07-20T07:31:20;100214.75;;;20.28;54.72
7200;BME280;3641;49.082;8.200;2023-07-20T07:33:48;100211.69;;;20.46;53.81
7200;BME280;3641;49.082;8.200;2023-07-20T07:36:14;100217.69;;;20.04;55.44
7200;BME280;3641;49.082;8.200;2023-07-20T07:38:41;100212.25;;;20.09;54.21
7200;BME280;3641;49.082;8.200;2023-07-20T07:41:07;100210.56;;;20.08;53.00
7200;BME280;3641;49.082;8.200;2023-07-20T07:43:34;100214.03;;;20.55;52.27
7200;BME280;3641;49.082;8.200;2023-07-20T07:46:01;100217.19;;;20.80;51.53
7200;BME280;3641;49.082;8.200;2023-07-20T07:48:29;100213.78;;;20.73;50.81
7200;BME280;3641;49.082;8.200;2023-07-20T07:50:55;100215.41;;;20.91;50.17
7200;BME280;3641;49.082;8.200;2023-07-20T07:53:21;100211.53;;;20.92;50.83
7200;BME280;3641;49.082;8.200;2023-07-20T07:55:51;100215.66;;;20.90;51.15
7200;BME280;3641;49.082;8.200;2023-07-20T07:58:17;100216.59;;;20.95;50.29
7200;BME280;3641;49.082;8.200;2023-07-20T08:00:44;100217.22;;;21.02;50.59
7200;BME280;3641;49.082;8.200;2023-07-20T08:03:10;100219.97;;;21.25;49.75
7200;BME280;3641;49.082;8.200;2023-07-20T08:05:38;100215.94;;;21.10;49.94
7200;BME280;3641;49.082;8.200;2023-07-20T08:08:04;100216.44;;;21.07;49.87
7200;BME280;3641;49.082;8.200;2023-07-20T08:10:31;100213.03;;;21.00;49.56
7200;BME280;3641;49.082;8.200;2023-07-20T08:12:58;100222.56;;;20.65;50.17
7200;BME280;3641;49.082;8.200;2023-07-20T08:15:24;100216.25;;;21.14;50.24
7200;BME280;3641;49.082;8.200;2023-07-20T08:17:50;100202.56;;;21.29;49.26
7200;BME280;3641;49.082;8.200;2023-07-20T08:20:17;100213.25;;;21.42;49.19
7200;BME280;3641;49.082;8.200;2023-07-20T08:22:45;100211.06;;;21.45;49.01
7200;BME280;3641;49.082;8.200;2023-07-20T08:25:12;100215.19;;;21.42;49.69
7200;BME280;3641;49.082;8.200;2023-07-20T08:27:38;100219.00;;;21.58;48.89
7200;BME280;3641;49.082;8.200;2023-07-20T08:30:07;100214.63;;;21.40;49.45
7200;BME280;3641;49.082;8.200;2023-07-20T08:32:34;100210.38;;;21.54;49.36
7200;BME280;3641;49.082;8.200;2023-07-20T08:35:00;100209.19;;;21.50;47.98
7200;BME280;3641;49.082;8.200;2023-07-20T08:37:28;100213.88;;;21.72;47.88
7200;BME280;3641;49.082;8.200;2023-07-20T08:39:56;100216.31;;;21.68;48.52
7200;BME280;3641;49.082;8.200;2023-07-20T08:42:23;100210.03;;;21.78;48.94
7200;BME280;3641;49.082;8.200;2023-07-20T08:44:49;100214.19;;;21.75;49.05
7200;BME280;3641;49.082;8.200;2023-07-20T08:47:20;100213.38;;;21.80;49.26
7200;BME280;3641;49.082;8.200;2023-07-20T08:49:48;100214.13;;;21.70;46.94
7200;BME280;3641;49.082;8.200;2023-07-20T08:52:15;100213.91;;;21.77;49.29
7200;BME280;3641;49.082;8.200;2023-07-20T08:54:41;100209.59;;;21.91;46.51
7200;BME280;3641;49.082;8.200;2023-07-20T08:57:13;100213.13;;;22.14;46.40
7200;BME280;3641;49.082;8.200;2023-07-20T08:59:40;100207.59;;;22.19;45.25
7200;BME280;3641;49.082;8.200;2023-07-20T09:02:08;100205.84;;;22.08;46.83
7200;BME280;3641;49.082;8.200;2023-07-20T09:04:39;100202.75;;;22.04;48.34
7200;BME280;3641;49.082;8.200;2023-07-20T09:07:05;100194.22;;;22.16;48.04
7200;BME280;3641;49.082;8.200;2023-07-20T09:09:33;100205.31;;;22.43;45.45
7200;BME280;3641;49.082;8.200;2023-07-20T09:11:59;100198.50;;;22.29;46.93
7200;BME280;3641;49.082;8.200;2023-07-20T09:14:30;100204.13;;;22.02;47.14
7200;BME280;3641;49.082;8.200;2023-07-20T09:16:56;100197.47;;;22.03;47.78
7200;BME280;3641;49.082;8.200;2023-07-20T09:19:23;100196.44;;;22.14;47.33
7200;BME280;3641;49.082;8.200;2023-07-20T09:21:51;100191.59;;;21.99;44.37
7200;BME280;3641;49.082;8.200;2023-07-20T09:24:19;100196.94;;;22.06;47.83
7200;BME280;3641;49.082;8.200;2023-07-20T09:26:47;100196.00;;;22.27;47.46
7200;BME280;3641;49.082;8.200;2023-07-20T09:29:17;100193.28;;;22.33;47.75
7200;BME280;3641;49.082;8.200;2023-07-20T09:31:58;100193.13;;;22.17;47.09
7200;BME280;3641;49.082;8.200;2023-07-20T09:34:24;100187.66;;;22.27;47.62
7200;BME280;3641;49.082;8.200;2023-07-20T09:36:51;100191.03;;;22.29;46.31
7200;BME280;3641;49.082;8.200;2023-07-20T09:39:17;100195.66;;;22.24;47.56
7200;BME280;3641;49.082;8.200;2023-07-20T09:41:44;100194.28;;;22.21;47.41
7200;BME280;3641;49.082;8.200;2023-07-20T09:44:11;100190.03;;;22.51;47.47
7200;BME280;3641;49.082;8.200;2023-07-20T09:46:43;100199.47;;;22.12;44.55
7200;BME280;3641;49.082;8.200;2023-07-20T09:49:11;100186.47;;;22.18;47.40
7200;BME280;3641;49.082;8.200;2023-07-20T09:51:38;100186.53;;;22.28;47.60
7200;BME280;3641;49.082;8.200;2023-07-20T09:54:05;100188.38;;;22.50;44.58
7200;BME280;3641;49.082;8.200;2023-07-20T09:56:33;100177.78;;;22.09;45.31
7200;BME280;3641;49.082;8.200;2023-07-20T09:58:59;100178.03;;;22.40;46.26
7200;BME280;3641;49.082;8.200;2023-07-20T10:01:26;100181.00;;;22.71;45.97
7200;BME280;3641;49.082;8.200;2023-07-20T10:03:58;100171.75;;;22.65;41.89
7200;BME280;3641;49.082;8.200;2023-07-20T10:06:28;100168.69;;;22.62;42.02
7200;BME280;3641;49.082;8.200;2023-07-20T10:09:00;100167.91;;;22.77;42.41
7200;BME280;3641;49.082;8.200;2023-07-20T10:11:30;100169.59;;;22.73;42.91
7200;BME280;3641;49.082;8.200;2023-07-20T10:13:59;100166.28;;;22.33;43.11
7200;BME280;3641;49.082;8.200;2023-07-20T10:16:28;100164.53;;;22.64;45.69
7200;BME280;3641;49.082;8.200;2023-07-20T10:19:05;100165.13;;;22.77;45.32
7200;BME280;3641;49.082;8.200;2023-07-20T10:21:35;100152.34;;;22.71;45.82
7200;BME280;3641;49.082;8.200;2023-07-20T10:24:06;100159.00;;;22.75;42.76
7200;BME280;3641;49.082;8.200;2023-07-20T10:26:33;100150.66;;;22.75;44.00
7200;BME280;3641;49.082;8.200;2023-07-20T10:29:00;100154.25;;;22.65;42.40
7200;BME280;3641;49.082;8.200;2023-07-20T10:31:28;100151.09;;;22.51;46.48
7200;BME280;3641;49.082;8.200;2023-07-20T10:33:56;100145.22;;;22.42;45.12
7200;BME280;3641;49.082;8.200;2023-07-20T10:36:25;100143.44;;;22.74;45.31
7200;BME280;3641;49.082;8.200;2023-07-20T10:38:54;100136.81;;;22.90;41.18
7200;BME280;3641;49.082;8.200;2023-07-20T10:41:27;100137.09;;;22.94;43.84
7200;BME280;3641;49.082;8.200;2023-07-20T10:43:58;100141.31;;;23.07;45.11
7200;BME280;3641;49.082;8.200;2023-07-20T10:46:43;100140.22;;;23.02;41.86
7200;BME280;3641;49.082;8.200;2023-07-20T10:49:11;100134.59;;;22.97;44.78
7200;BME280;3641;49.082;8.200;2023-07-20T10:51:39;100130.22;;;23.12;44.57
7200;BME280;3641;49.082;8.200;2023-07-20T10:54:10;100131.13;;;23.33;41.47
7200;BME280;3641;49.082;8.200;2023-07-20T10:56:57;100130.84;;;23.50;40.75
7200;BME280;3641;49.082;8.200;2023-07-20T10:59:37;100118.63;;;23.66;40.96
7200;BME280;3641;49.082;8.200;2023-07-20T11:02:06;100122.53;;;23.65;41.77
7200;BME280;3641;49.082;8.200;2023-07-20T11:04:39;100119.13;;;23.32;39.55
7200;BME280;3641;49.082;8.200;2023-07-20T11:07:05;100118.63;;;23.71;42.79
7200;BME280;3641;49.082;8.200;2023-07-20T11:09:35;100116.41;;;23.99;39.66
7200;BME280;3641;49.082;8.200;2023-07-20T11:12:12;100119.94;;;24.36;39.66
7200;BME280;3641;49.082;8.200;2023-07-20T11:14:40;100115.94;;;24.73;38.10
7200;BME280;3641;49.082;8.200;2023-07-20T11:17:14;100122.63;;;24.77;39.62
7200;BME280;3641;49.082;8.200;2023-07-20T11:19:43;100115.94;;;24.73;36.29
7200;BME280;3641;49.082;8.200;2023-07-20T11:22:10;100114.66;;;24.34;40.70
7200;BME280;3641;49.082;8.200;2023-07-20T11:24:39;100108.25;;;24.34;42.29
7200;BME280;3641;49.082;8.200;2023-07-20T11:27:06;100108.28;;;24.13;37.98
7200;BME280;3641;49.082;8.200;2023-07-20T11:29:32;100106.91;;;24.16;38.75
7200;BME280;3641;49.082;8.200;2023-07-20T11:31:59;100098.53;;;24.10;37.06
7200;BME280;3641;49.082;8.200;2023-07-20T11:34:26;100100.47;;;24.15;38.63
7200;BME280;3641;49.082;8.200;2023-07-20T11:36:53;100100.72;;;24.34;38.71
7200;BME280;3641;49.082;8.200;2023-07-20T11:39:21;100105.09;;;24.51;40.39
7200;BME280;3641;49.082;8.200;2023-07-20T11:41:53;100089.53;;;24.34;40.92
7200;BME280;3641;49.082;8.200;2023-07-20T11:44:21;100087.41;;;23.95;40.95
7200;BME280;3641;49.082;8.200;2023-07-20T11:46:59;100091.03;;;23.96;41.20
7200;BME280;3641;49.082;8.200;2023-07-20T11:49:26;100084.84;;;24.19;42.15
7200;BME280;3641;49.082;8.200;2023-07-20T11:51:53;100089.31;;;24.15;42.49
7200;BME280;3641;49.082;8.200;2023-07-20T11:54:19;100085.44;;;24.11;42.70
7200;BME280;3641;49.082;8.200;2023-07-20T11:56:46;100089.63;;;24.08;39.68
7200;BME280;3641;49.082;8.200;2023-07-20T11:59:14;100080.19;;;23.89;38.07
7200;BME280;3641;49.082;8.200;2023-07-20T12:01:40;100078.47;;;23.72;38.51
7200;BME280;3641;49.082;8.200;2023-07-20T12:04:07;100075.41;;;23.94;42.25
7200;BME280;3641;49.082;8.200;2023-07-20T12:06:34;100069.00;;;23.99;41.81
7200;BME280;3641;49.082;8.200;2023-07-20T12:09:00;100068.44;;;24.02;40.36
7200;BME280;3641;49.082;8.200;2023-07-20T12:11:31;100064.81;;;23.91;37.95
7200;BME280;3641;49.082;8.200;2023-07-20T12:13:58;100070.63;;;24.10;41.26
7200;BME280;3641;49.082;8.200;2023-07-20T12:16:28;100065.31;;;24.24;38.37
7200;BME280;3641;49.082;8.200;2023-07-20T12:18:59;100056.91;;;24.29;41.46
7200;BME280;3641;49.082;8.200;2023-07-20T12:21:26;100057.75;;;24.35;40.87
7200;BME280;3641;49.082;8.200;2023-07-20T12:23:52;100059.44;;;24.26;40.73
7200;BME280;3641;49.082;8.200;2023-07-20T12:26:19;100053.06;;;24.10;39.38
7200;BME280;3641;49.082;8.200;2023-07-20T12:28:47;100045.00;;;24.03;40.64
7200;BME280;3641;49.082;8.200;2023-07-20T12:31:14;100048.31;;;24.21;36.93
7200;BME280;3641;49.082;8.200;2023-07-20T12:33:42;100051.59;;;24.33;38.35
7200;BME280;3641;49.082;8.200;2023-07-20T12:36:09;100050.47;;;24.44;39.38
7200;BME280;3641;49.082;8.200;2023-07-20T12:38:35;100040.09;;;24.60;40.43
7200;BME280;3641;49.082;8.200;2023-07-20T12:41:02;100033.06;;;24.68;36.64
7200;BME280;3641;49.082;8.200;2023-07-20T12:43:29;100033.63;;;24.70;39.80
7200;BME280;3641;49.082;8.200;2023-07-20T12:45:58;100041.13;;;24.75;40.52
7200;BME280;3641;49.082;8.200;2023-07-20T13:13:12;100015.81;;;24.56;33.49
7200;BME280;3641;49.082;8.200;2023-07-20T13:15:43;100013.81;;;24.72;36.27
7200;BME280;3641;49.082;8.200;2023-07-20T13:18:10;100014.28;;;24.19;33.99
7200;BME280;3641;49.082;8.200;2023-07-20T13:20:36;100020.63;;;24.35;35.46
7200;BME280;3641;49.082;8.200;2023-07-20T13:23:03;100016.38;;;24.58;39.38
7200;BME280;3641;49.082;8.200;2023-07-20T13:25:30;100013.72;;;24.17;34.03
7200;BME280;3641;49.082;8.200;2023-07-20T13:27:56;100015.16;;;24.14;38.94
7200;BME280;3641;49.082;8.200;2023-07-20T13:30:24;100010.00;;;24.42;39.45
7200;BME280;3641;49.082;8.200;2023-07-20T13:32:51;100004.06;;;24.54;39.71
7200;BME280;3641;49.082;8.200;2023-07-20T13:35:17;99997.34;;;24.65;35.05
7200;BME280;3641;49.082;8.200;2023-07-20T13:37:44;99990.97;;;24.59;33.64
7200;BME280;3641;49.082;8.200;2023-07-20T13:40:10;99985.31;;;24.70;36.48